Time;durP1;ratioP1;P1;durP2;ratioP2;P2;SDS_P1;SDS_P2;PMS_P1;PMS_P2;Temp;Humidity;BMP_temperature;BMP_pressure;BME280_temperature;BME280_humidity;BME280_pressure;Samples;Min_cycle;Max_cycle;Signal;HPM_P1;HPM_P2
2022/02/18 00:01:23;;;;;;;8.63;6.55;;;;;;;;;;777157;76;26320;-79
2022/02/18 00:02:25;;;;;;;9.25;7.53;;;;;;;;;;783121;76;26761;-78
2022/02/18 00:03:28;;;;;;;9.30;6.75;;;;;;;;;;776803;74;26242;-78
2022/02/18 00:08:18;;;;;;;6.95;6.20;;;;;;;;;;776998;76;26218;-79
2022/02/18 00:09:22;;;;;;;7.20;6.50;;;;;;;;;;783277;75;26770;-79
2022/02/18 00:10:25;;;;;;;7.20;5.90;;;;;;;;;;776914;76;26808;-79
2022/02/18 00:14:02;;;;;;;7.97;5.78;;;;;;;;;;776956;76;26284;-78
2022/02/18 00:15:20;;;;;;;8.60;6.50;;;;;;;;;;777083;76;26717;-79
2022/02/18 00:20:05;;;;;;;7.12;5.78;;;;;;;;;;777162;76;26264;-80
2022/02/18 00:21:08;;;;;;;8.30;6.00;;;;;;;;;;777083;76;26241;-79
2022/02/18 00:22:11;;;;;;;9.80;6.60;;;;;;;;;;776987;76;26350;-79
2022/02/18 00:26:55;;;;;;;8.50;6.78;;;;;;;;;;776913;76;26218;-80
2022/02/18 00:31:52;;;;;;;11.10;6.80;;;;;;;;;;776984;76;26253;-80
2022/02/18 00:32:55;;;;;;;6.33;5.67;;;;;;;;;;776905;76;26245;-79
2022/02/18 00:37:43;;;;;;;6.90;5.62;;;;;;;;;;774718;74;26242;-79
2022/02/18 00:38:45;;;;;;;8.05;5.83;;;;;;;;;;794738;74;26302;-79
2022/02/18 00:42:21;;;;;;;9.58;5.45;;;;;;;;;;794861;74;26262;-78
2022/02/18 00:43:24;;;;;;;7.35;5.62;;;;;;;;;;794786;74;26236;-80
2022/02/18 00:44:27;;;;;;;5.87;5.15;;;;;;;;;;794755;74;26247;-79
2022/02/18 00:49:11;;;;;;;5.20;4.40;;;;;;;;;;794653;74;26251;-81
2022/02/18 00:54:07;;;;;;;4.10;3.67;;;;;;;;;;794772;74;26195;-79
2022/02/18 00:55:29;;;;;;;4.65;3.80;;;;;;;;;;794889;74;26732;-78
2022/02/18 00:56:32;;;;;;;6.03;4.40;;;;;;;;;;794923;74;26299;-82
2022/02/18 00:57:44;;;;;;;4.10;3.80;;;;;;;;;;794861;74;26286;-79
2022/02/18 00:58:47;;;;;;;4.17;3.77;;;;;;;;;;794897;74;26625;-79
2022/02/18 01:02:22;;;;;;;5.03;4.28;;;;;;;;;;794821;74;26167;-79
2022/02/18 01:03:25;;;;;;;3.87;3.58;;;;;;;;;;794761;74;26675;-79
2022/02/18 01:06:26;;;;;;;4.33;3.87;;;;;;;;;;794761;74;26742;-78
2022/02/18 01:07:28;;;;;;;4.80;4.22;;;;;;;;;;794877;74;26296;-78
2022/02/18 01:10:40;;;;;;;4.83;4.17;;;;;;;;;;794870;74;26194;-79
2022/02/18 01:11:43;;;;;;;4.80;4.33;;;;;;;;;;794738;74;26247;-79
2022/02/18 01:14:40;;;;;;;7.00;5.05;;;;;;;;;;794932;74;26761;-78
2022/02/18 01:15:42;;;;;;;5.55;5.05;;;;;;;;;;794812;74;26234;-80
2022/02/18 01:19:13;;;;;;;5.12;4.62;;;;;;;;;;794681;74;26238;-78
2022/02/18 01:20:15;;;;;;;9.75;5.25;;;;;;;;;;794735;74;26246;-78
2022/02/18 01:21:18;;;;;;;5.08;4.65;;;;;;;;;;794531;74;26332;-78
2022/02/18 01:25:52;;;;;;;5.25;4.75;;;;;;;;;;794898;74;26397;-79
2022/02/18 01:26:54;;;;;;;5.33;4.80;;;;;;;;;;794585;74;26383;-80
2022/02/18 01:27:57;;;;;;;5.72;4.83;;;;;;;;;;794816;74;26241;-77
2022/02/18 01:29:01;;;;;;;6.65;5.15;;;;;;;;;;794726;74;26332;-78
2022/02/18 01:33:33;;;;;;;5.50;4.90;;;;;;;;;;794916;74;26655;-79
2022/02/18 01:37:07;;;;;;;5.97;4.62;;;;;;;;;;794998;74;26299;-80
2022/02/18 01:38:10;;;;;;;5.15;4.42;;;;;;;;;;794773;74;26295;-79
2022/02/18 01:42:43;;;;;;;5.65;5.10;;;;;;;;;;783238;76;26759;-76
2022/02/18 01:43:50;;;;;;;6.75;5.70;;;;;;;;;;777044;74;26722;-79
2022/02/18 01:44:53;;;;;;;6.95;6.00;;;;;;;;;;776939;76;26302;-78
2022/02/18 01:45:56;;;;;;;8.58;6.33;;;;;;;;;;776576;76;26252;-79
2022/02/18 01:46:58;;;;;;;9.20;6.35;;;;;;;;;;776768;76;26439;-77
2022/02/18 01:48:01;;;;;;;7.40;6.70;;;;;;;;;;776892;75;26791;-81
2022/02/18 01:49:04;;;;;;;13.08;6.97;;;;;;;;;;776590;75;26771;-80
2022/02/18 01:50:07;;;;;;;9.30;6.85;;;;;;;;;;776758;76;26299;-79
2022/02/18 01:51:10;;;;;;;7.90;6.60;;;;;;;;;;776556;75;26346;-79
2022/02/18 01:52:14;;;;;;;7.55;6.37;;;;;;;;;;776587;76;26830;-78
2022/02/18 01:53:17;;;;;;;7.40;6.47;;;;;;;;;;777055;76;26249;-78
2022/02/18 01:54:20;;;;;;;7.25;6.25;;;;;;;;;;776762;75;26361;-79
2022/02/18 01:55:23;;;;;;;7.55;6.00;;;;;;;;;;776640;76;26770;-80
2022/02/18 01:56:26;;;;;;;6.58;5.97;;;;;;;;;;776888;76;26249;-78
2022/02/18 01:57:29;;;;;;;7.00;6.30;;;;;;;;;;776713;76;26299;-80
2022/02/18 02:00:17;;;;;;;8.43;6.10;;;;;;;;;;776520;75;26334;-79
2022/02/18 02:01:20;;;;;;;7.58;6.25;;;;;;;;;;776810;76;26249;-78
2022/02/18 02:02:23;;;;;;;7.80;6.70;;;;;;;;;;776632;76;26722;-78
2022/02/18 02:03:25;;;;;;;8.20;6.40;;;;;;;;;;776505;76;26241;-80
2022/02/18 02:04:28;;;;;;;7.40;5.75;;;;;;;;;;776607;76;26337;-78
2022/02/18 02:05:32;;;;;;;9.95;6.92;;;;;;;;;;776767;76;26300;-79
2022/02/18 02:06:35;;;;;;;8.40;6.75;;;;;;;;;;776835;76;26668;-80
2022/02/18 02:07:39;;;;;;;9.38;7.00;;;;;;;;;;776496;74;26296;-77
2022/02/18 02:08:41;;;;;;;8.85;7.20;;;;;;;;;;776985;76;26295;-79
2022/02/18 02:09:44;;;;;;;7.47;6.67;;;;;;;;;;776527;76;26293;-80
2022/02/18 02:10:48;;;;;;;7.85;6.47;;;;;;;;;;782740;76;26945;-79
2022/02/18 02:11:51;;;;;;;7.62;6.78;;;;;;;;;;777068;76;26359;-79
2022/02/18 02:12:54;;;;;;;7.33;6.58;;;;;;;;;;776594;76;26690;-80
2022/02/18 02:13:58;;;;;;;8.13;6.67;;;;;;;;;;782866;76;26805;-79
2022/02/18 02:15:01;;;;;;;6.53;5.65;;;;;;;;;;762957;76;26360;-79
2022/02/18 02:16:04;;;;;;;9.48;5.97;;;;;;;;;;783131;76;26246;-78
2022/02/18 02:17:07;;;;;;;9.05;6.12;;;;;;;;;;763470;76;26803;-79
2022/02/18 02:19:49;;;;;;;7.12;5.83;;;;;;;;;;763701;76;26247;-77
2022/02/18 02:20:52;;;;;;;6.78;5.67;;;;;;;;;;783175;76;26675;-78
2022/02/18 02:21:55;;;;;;;8.08;5.90;;;;;;;;;;776575;76;26337;-77
2022/02/18 02:22:58;;;;;;;5.87;5.28;;;;;;;;;;776880;76;26241;-80
2022/02/18 02:24:01;;;;;;;6.95;5.80;;;;;;;;;;776712;75;26381;-80
2022/02/18 02:25:04;;;;;;;5.75;5.10;;;;;;;;;;776926;76;26245;-78
2022/02/18 02:28:27;;;;;;;6.05;5.30;;;;;;;;;;776973;76;26326;-78
2022/02/18 02:29:30;;;;;;;5.72;5.15;;;;;;;;;;777027;76;26693;-78
2022/02/18 02:30:33;;;;;;;6.17;5.33;;;;;;;;;;776903;76;26245;-78
2022/02/18 02:33:20;;;;;;;6.33;5.30;;;;;;;;;;776900;76;26210;-80
2022/02/18 02:34:23;;;;;;;5.97;5.40;;;;;;;;;;776891;74;26354;-80
2022/02/18 02:35:25;;;;;;;7.28;5.50;;;;;;;;;;776692;75;26349;-79
2022/02/18 02:36:28;;;;;;;6.70;4.90;;;;;;;;;;776832;76;26236;-79
2022/02/18 02:37:31;;;;;;;6.25;5.65;;;;;;;;;;776549;76;26788;-81
2022/02/18 02:38:34;;;;;;;6.85;5.12;;;;;;;;;;777021;76;26290;-78
2022/02/18 02:41:34;;;;;;;9.50;5.65;;;;;;;;;;776713;75;26292;-79
2022/02/18 02:42:36;;;;;;;6.17;5.28;;;;;;;;;;776769;74;26288;-78
2022/02/18 02:43:39;;;;;;;6.92;4.95;;;;;;;;;;779207;76;26338;-81
2022/02/18 02:44:42;;;;;;;6.50;5.15;;;;;;;;;;779275;76;24726;-79
2022/02/18 02:45:45;;;;;;;5.37;4.87;;;;;;;;;;779076;76;26251;-78
2022/02/18 02:48:45;;;;;;;6.28;5.30;;;;;;;;;;779023;76;26265;-79
2022/02/18 02:49:47;;;;;;;6.35;5.75;;;;;;;;;;779242;76;26308;-78
2022/02/18 02:50:50;;;;;;;6.97;5.55;;;;;;;;;;779103;76;26241;-79
2022/02/18 02:51:53;;;;;;;6.25;5.00;;;;;;;;;;779035;76;26346;-77
2022/02/18 02:52:55;;;;;;;8.03;5.85;;;;;;;;;;778951;76;26300;-79
2022/02/18 02:53:58;;;;;;;5.83;5.15;;;;;;;;;;779156;76;26682;-79
2022/02/18 02:57:32;;;;;;;4.90;4.50;;;;;;;;;;779122;76;26729;-79
2022/02/18 02:58:42;;;;;;;5.30;4.80;;;;;;;;;;779138;75;26339;-77
2022/02/18 02:59:45;;;;;;;5.80;5.20;;;;;;;;;;779253;76;26244;-79
2022/02/18 03:00:48;;;;;;;7.15;5.40;;;;;;;;;;779113;76;26671;-78
2022/02/18 03:05:45;;;;;;;5.83;4.95;;;;;;;;;;779158;76;26228;-77
2022/02/18 03:06:47;;;;;;;5.62;4.87;;;;;;;;;;778809;76;26355;-79
2022/02/18 03:07:52;;;;;;;5.60;4.85;;;;;;;;;;779148;75;26288;-78
2022/02/18 03:08:55;;;;;;;5.60;4.70;;;;;;;;;;779035;76;26229;-80
2022/02/18 03:09:58;;;;;;;6.50;4.95;;;;;;;;;;778996;76;26317;-79
2022/02/18 03:11:16;;;;;;;6.10;5.10;;;;;;;;;;779048;76;26242;-78
2022/02/18 03:12:19;;;;;;;6.60;5.25;;;;;;;;;;779152;76;26307;-80
2022/02/18 03:13:21;;;;;;;5.85;4.78;;;;;;;;;;779014;76;26440;-79
2022/02/18 03:14:25;;;;;;;6.78;4.90;;;;;;;;;;778779;76;26350;-79
2022/02/18 03:15:28;;;;;;;6.20;5.03;;;;;;;;;;763222;77;26263;-80
2022/02/18 03:16:30;;;;;;;6.28;4.97;;;;;;;;;;763191;77;26362;-78
2022/02/18 03:17:33;;;;;;;6.12;5.50;;;;;;;;;;763191;77;26349;-78
2022/02/18 03:18:35;;;;;;;5.55;4.90;;;;;;;;;;763237;76;26253;-80
2022/02/18 03:21:59;;;;;;;5.35;4.55;;;;;;;;;;763191;77;26281;-80
2022/02/18 03:23:02;;;;;;;5.53;5.03;;;;;;;;;;763047;76;26309;-78
2022/02/18 03:24:05;;;;;;;5.17;4.67;;;;;;;;;;762944;76;26299;-78
2022/02/18 03:25:08;;;;;;;4.62;4.22;;;;;;;;;;762885;76;26776;-79
2022/02/18 03:26:11;;;;;;;6.83;4.78;;;;;;;;;;762963;76;26303;-82
2022/02/18 03:27:14;;;;;;;5.78;4.80;;;;;;;;;;762875;76;26311;-78
2022/02/18 03:28:17;;;;;;;5.28;4.78;;;;;;;;;;763059;76;26302;-79
2022/02/18 03:29:19;;;;;;;4.70;4.10;;;;;;;;;;762989;76;26385;-78
2022/02/18 03:30:22;;;;;;;5.85;4.75;;;;;;;;;;763025;76;26338;-78
2022/02/18 03:31:25;;;;;;;5.50;4.60;;;;;;;;;;763076;76;26749;-80
2022/02/18 03:32:27;;;;;;;5.95;4.00;;;;;;;;;;762940;76;26305;-78
2022/02/18 03:33:30;;;;;;;4.58;4.10;;;;;;;;;;763077;76;26364;-79
2022/02/18 03:34:34;;;;;;;5.80;4.60;;;;;;;;;;763193;76;26792;-78
2022/02/18 03:35:40;;;;;;;5.50;4.62;;;;;;;;;;762970;76;26360;-80
2022/02/18 03:36:43;;;;;;;5.08;4.62;;;;;;;;;;763055;76;26380;-83
2022/02/18 03:37:46;;;;;;;5.55;4.95;;;;;;;;;;763022;76;26443;-81
2022/02/18 03:38:48;;;;;;;6.62;4.80;;;;;;;;;;763120;76;26417;-81
2022/02/18 03:39:51;;;;;;;5.42;4.80;;;;;;;;;;763016;76;26331;-78
2022/02/18 03:40:55;;;;;;;7.75;5.53;;;;;;;;;;763072;76;26745;-79
2022/02/18 03:41:58;;;;;;;8.60;4.90;;;;;;;;;;763014;77;26342;-80
2022/02/18 03:43:01;;;;;;;5.42;4.90;;;;;;;;;;763029;76;26334;-79
2022/02/18 03:44:06;;;;;;;5.05;4.62;;;;;;;;;;776026;74;26395;-79
2022/02/18 03:45:08;;;;;;;6.00;4.72;;;;;;;;;;783971;75;26330;-78
2022/02/18 03:46:12;;;;;;;5.72;4.50;;;;;;;;;;783991;75;26400;-78
2022/02/18 03:47:14;;;;;;;6.15;5.22;;;;;;;;;;783834;75;26817;-79
2022/02/18 03:48:17;;;;;;;6.70;4.92;;;;;;;;;;783979;75;26233;-78
2022/02/18 03:49:20;;;;;;;5.28;4.78;;;;;;;;;;783856;75;26348;-79
2022/02/18 03:50:22;;;;;;;5.67;5.08;;;;;;;;;;783968;75;26298;-80
2022/02/18 03:51:25;;;;;;;5.95;4.55;;;;;;;;;;783881;75;26290;-80
2022/02/18 03:52:28;;;;;;;5.78;5.20;;;;;;;;;;783814;75;26286;-80
2022/02/18 03:53:31;;;;;;;7.70;5.20;;;;;;;;;;783806;75;26302;-80
2022/02/18 03:54:33;;;;;;;5.90;5.30;;;;;;;;;;784155;75;26243;-80
2022/02/18 03:55:38;;;;;;;6.08;4.90;;;;;;;;;;784264;75;26370;-82
2022/02/18 03:56:41;;;;;;;6.10;5.10;;;;;;;;;;784074;75;26331;-78
2022/02/18 03:57:44;;;;;;;6.90;5.05;;;;;;;;;;783957;75;26760;-81
2022/02/18 03:58:46;;;;;;;7.83;5.42;;;;;;;;;;783773;75;27199;-80
2022/02/18 03:59:49;;;;;;;6.42;4.67;;;;;;;;;;783926;75;26825;-79
2022/02/18 04:00:52;;;;;;;5.12;4.58;;;;;;;;;;784145;75;27070;-79
2022/02/18 04:01:55;;;;;;;5.97;5.00;;;;;;;;;;783920;75;26313;-78
2022/02/18 04:02:58;;;;;;;4.78;4.20;;;;;;;;;;783871;75;26340;-81
2022/02/18 04:04:00;;;;;;;5.00;4.40;;;;;;;;;;784086;75;26318;-80
2022/02/18 04:05:04;;;;;;;5.25;4.20;;;;;;;;;;783907;75;26306;-79
2022/02/18 04:06:06;;;;;;;4.50;4.10;;;;;;;;;;783962;75;26235;-80
2022/02/18 04:07:11;;;;;;;3.92;3.62;;;;;;;;;;783901;75;26250;-80
2022/02/18 04:08:14;;;;;;;4.92;4.30;;;;;;;;;;783955;75;26321;-79
2022/02/18 04:09:16;;;;;;;3.60;3.30;;;;;;;;;;784036;75;26340;-81
2022/02/18 04:10:19;;;;;;;4.05;3.75;;;;;;;;;;784265;75;26347;-79
2022/02/18 04:11:22;;;;;;;6.35;4.20;;;;;;;;;;784069;75;26275;-79
2022/02/18 04:12:25;;;;;;;3.95;3.65;;;;;;;;;;783998;75;26314;-79
2022/02/18 04:13:27;;;;;;;3.40;3.10;;;;;;;;;;784258;75;26353;-81
2022/02/18 04:14:30;;;;;;;3.15;2.87;;;;;;;;;;784181;75;26247;-81
2022/02/18 04:15:33;;;;;;;2.98;2.77;;;;;;;;;;784101;75;26725;-80
2022/02/18 04:16:35;;;;;;;3.10;2.77;;;;;;;;;;783879;75;26340;-81
2022/02/18 04:17:38;;;;;;;3.65;2.45;;;;;;;;;;784156;75;26324;-78
2022/02/18 04:18:41;;;;;;;3.00;2.70;;;;;;;;;;783948;75;26235;-79
2022/02/18 04:19:44;;;;;;;2.70;2.50;;;;;;;;;;783963;75;26336;-79
2022/02/18 04:20:48;;;;;;;2.62;2.42;;;;;;;;;;784170;74;26642;-80
2022/02/18 04:21:52;;;;;;;2.40;2.20;;;;;;;;;;783820;75;26768;-81
2022/02/18 04:22:55;;;;;;;2.22;2.12;;;;;;;;;;783910;75;26650;-79
2022/02/18 04:23:58;;;;;;;2.20;2.00;;;;;;;;;;783943;75;26300;-81
2022/02/18 04:25:01;;;;;;;2.30;2.20;;;;;;;;;;784077;75;26295;-80
2022/02/18 04:26:03;;;;;;;2.40;2.20;;;;;;;;;;783949;75;26321;-79
2022/02/18 04:27:06;;;;;;;2.65;2.42;;;;;;;;;;783828;75;26235;-79
2022/02/18 04:28:09;;;;;;;2.33;2.12;;;;;;;;;;784057;75;26357;-80
2022/02/18 04:29:11;;;;;;;1.92;1.82;;;;;;;;;;783955;75;26772;-79
2022/02/18 04:30:14;;;;;;;2.00;1.90;;;;;;;;;;784001;75;26771;-79
2022/02/18 04:31:17;;;;;;;2.05;1.95;;;;;;;;;;784102;75;26243;-79
2022/02/18 04:32:20;;;;;;;3.12;2.90;;;;;;;;;;784176;75;26332;-80
2022/02/18 04:33:42;;;;;;;2.20;2.10;;;;;;;;;;785038;75;26219;-81
2022/02/18 04:34:44;;;;;;;2.40;2.30;;;;;;;;;;783908;75;26356;-79
2022/02/18 04:35:47;;;;;;;2.37;2.17;;;;;;;;;;784059;75;26329;-83
2022/02/18 04:36:50;;;;;;;2.50;2.30;;;;;;;;;;783968;75;26245;-79
2022/02/18 04:37:53;;;;;;;2.00;1.90;;;;;;;;;;784213;75;26803;-81
2022/02/18 04:38:55;;;;;;;2.47;2.27;;;;;;;;;;783995;75;26649;-82
2022/02/18 04:39:58;;;;;;;2.37;2.17;;;;;;;;;;783946;75;26302;-79
2022/02/18 04:41:02;;;;;;;2.27;2.17;;;;;;;;;;784200;75;26313;-81
2022/02/18 04:42:05;;;;;;;2.27;1.98;;;;;;;;;;783979;75;26248;-79
2022/02/18 04:43:07;;;;;;;2.20;2.10;;;;;;;;;;783973;75;26228;-80
2022/02/18 04:44:10;;;;;;;2.00;1.90;;;;;;;;;;783984;75;26724;-80
2022/02/18 04:45:14;;;;;;;2.55;2.37;;;;;;;;;;792470;74;26305;-80
2022/02/18 04:46:16;;;;;;;2.30;2.20;;;;;;;;;;795125;74;26379;-80
2022/02/18 04:47:19;;;;;;;2.98;2.08;;;;;;;;;;794836;74;26854;-83
2022/02/18 04:48:22;;;;;;;2.40;2.20;;;;;;;;;;794636;74;26371;-79
2022/02/18 04:49:25;;;;;;;1.95;1.85;;;;;;;;;;794937;74;26293;-79
2022/02/18 04:50:29;;;;;;;3.27;2.50;;;;;;;;;;793574;74;26379;-78
2022/02/18 04:51:32;;;;;;;2.40;2.20;;;;;;;;;;794583;74;26293;-79
2022/02/18 04:52:35;;;;;;;2.40;2.10;;;;;;;;;;794845;74;26821;-81
2022/02/18 04:53:37;;;;;;;2.87;2.40;;;;;;;;;;794678;74;26300;-79
2022/02/18 04:54:40;;;;;;;2.37;2.17;;;;;;;;;;794678;74;26234;-81
2022/02/18 04:55:43;;;;;;;2.37;2.25;;;;;;;;;;794503;74;26370;-80
2022/02/18 04:56:45;;;;;;;2.17;2.08;;;;;;;;;;794632;74;26313;-80
2022/02/18 04:57:48;;;;;;;1.50;1.50;;;;;;;;;;794575;74;26331;-80
2022/02/18 04:58:51;;;;;;;1.80;1.70;;;;;;;;;;795385;74;26289;-80
2022/02/18 05:00:13;;;;;;;1.90;1.80;;;;;;;;;;794781;74;26250;-80
2022/02/18 05:01:17;;;;;;;1.80;1.70;;;;;;;;;;794598;74;26324;-79
2022/02/18 05:02:19;;;;;;;1.90;1.80;;;;;;;;;;795005;74;26770;-81
2022/02/18 05:03:22;;;;;;;2.25;2.15;;;;;;;;;;794511;74;26343;-82
2022/02/18 05:04:25;;;;;;;2.37;2.17;;;;;;;;;;794658;74;26799;-80
2022/02/18 05:05:27;;;;;;;1.80;1.70;;;;;;;;;;794561;74;26723;-81
2022/02/18 05:06:30;;;;;;;2.47;1.80;;;;;;;;;;794680;74;26371;-79
2022/02/18 05:07:33;;;;;;;2.30;2.05;;;;;;;;;;794721;74;26293;-80
2022/02/18 05:08:36;;;;;;;1.70;1.70;;;;;;;;;;794497;74;26717;-80
2022/02/18 05:09:39;;;;;;;1.70;1.60;;;;;;;;;;794541;74;26290;-81
2022/02/18 05:10:41;;;;;;;1.75;1.65;;;;;;;;;;794587;74;26392;-82
2022/02/18 05:11:44;;;;;;;2.08;1.92;;;;;;;;;;794634;74;26273;-80
2022/02/18 05:12:46;;;;;;;1.92;1.82;;;;;;;;;;794710;74;26265;-80
2022/02/18 05:13:51;;;;;;;2.25;1.90;;;;;;;;;;793672;74;26660;-80
2022/02/18 05:14:54;;;;;;;1.98;1.87;;;;;;;;;;794444;74;26242;-79
2022/02/18 05:15:56;;;;;;;1.80;1.80;;;;;;;;;;794514;74;26744;-80
2022/02/18 05:16:59;;;;;;;3.30;2.17;;;;;;;;;;794624;74;26672;-79
2022/02/18 05:18:03;;;;;;;2.20;2.00;;;;;;;;;;794535;74;26719;-82
2022/02/18 05:19:09;;;;;;;2.10;2.00;;;;;;;;;;794793;74;26292;-81
2022/02/18 05:20:10;;;;;;;2.67;2.47;;;;;;;;;;793908;74;26782;-80
2022/02/18 05:21:17;;;;;;;2.12;1.92;;;;;;;;;;794512;74;26324;-79
2022/02/18 05:22:18;;;;;;;2.20;2.10;;;;;;;;;;794442;74;26293;-81
2022/02/18 05:23:21;;;;;;;1.72;1.62;;;;;;;;;;794582;74;26770;-80
2022/02/18 05:24:24;;;;;;;2.02;1.92;;;;;;;;;;794537;74;26289;-81
2022/02/18 05:25:27;;;;;;;2.60;2.35;;;;;;;;;;794335;74;26723;-79
2022/02/18 05:26:29;;;;;;;2.55;2.45;;;;;;;;;;794466;74;27253;-78
2022/02/18 05:27:32;;;;;;;2.65;2.00;;;;;;;;;;794556;74;26335;-80
2022/02/18 05:28:35;;;;;;;2.40;2.20;;;;;;;;;;794617;74;26333;-79
2022/02/18 05:29:37;;;;;;;2.37;2.27;;;;;;;;;;794782;74;26300;-82
2022/02/18 05:30:40;;;;;;;6.05;3.70;;;;;;;;;;794399;74;26339;-81
2022/02/18 05:31:43;;;;;;;3.55;3.25;;;;;;;;;;793455;74;26309;-81
2022/02/18 05:32:45;;;;;;;4.28;3.27;;;;;;;;;;794387;74;26743;-81
2022/02/18 05:33:48;;;;;;;5.55;3.20;;;;;;;;;;794523;74;26368;-81
2022/02/18 05:34:51;;;;;;;3.58;2.62;;;;;;;;;;794202;74;26394;-82
2022/02/18 05:35:54;;;;;;;2.80;2.52;;;;;;;;;;794496;74;26688;-82
2022/02/18 05:36:56;;;;;;;2.60;1.98;;;;;;;;;;794489;74;26261;-79
2022/02/18 05:37:59;;;;;;;2.00;1.90;;;;;;;;;;794489;74;26285;-79
2022/02/18 05:39:03;;;;;;;3.00;1.82;;;;;;;;;;794798;74;26283;-80
2022/02/18 05:40:06;;;;;;;1.90;1.70;;;;;;;;;;794542;74;26298;-81
2022/02/18 05:41:13;;;;;;;1.80;1.70;;;;;;;;;;794541;74;26292;-81
2022/02/18 05:42:15;;;;;;;2.00;1.90;;;;;;;;;;794321;74;26339;-82
2022/02/18 05:43:18;;;;;;;1.87;1.77;;;;;;;;;;794532;74;26280;-82
2022/02/18 05:44:20;;;;;;;2.00;1.77;;;;;;;;;;794465;74;26731;-79
2022/02/18 05:45:24;;;;;;;1.87;1.72;;;;;;;;;;794380;74;26775;-80
2022/02/18 05:46:27;;;;;;;2.08;1.87;;;;;;;;;;781732;76;26440;-82
2022/02/18 05:47:31;;;;;;;1.70;1.60;;;;;;;;;;781661;76;26320;-80
2022/02/18 05:48:34;;;;;;;1.87;1.77;;;;;;;;;;781772;76;26793;-81
2022/02/18 05:49:36;;;;;;;2.00;1.80;;;;;;;;;;781776;76;26320;-80
2022/02/18 05:50:39;;;;;;;1.87;1.77;;;;;;;;;;781844;76;26551;-81
2022/02/18 05:51:42;;;;;;;2.22;1.95;;;;;;;;;;781893;76;26460;-79
2022/02/18 05:52:45;;;;;;;2.00;1.90;;;;;;;;;;781764;76;26970;-83
2022/02/18 05:53:47;;;;;;;1.95;1.85;;;;;;;;;;781799;76;26855;-80
2022/02/18 05:54:50;;;;;;;2.02;1.82;;;;;;;;;;781828;76;26738;-81
2022/02/18 05:55:53;;;;;;;2.00;1.90;;;;;;;;;;781773;76;26363;-80
2022/02/18 05:56:56;;;;;;;1.90;1.80;;;;;;;;;;781783;76;26655;-80
2022/02/18 05:57:58;;;;;;;2.30;2.20;;;;;;;;;;781785;76;26783;-79
2022/02/18 05:59:02;;;;;;;2.15;2.05;;;;;;;;;;781857;76;26379;-81
2022/02/18 06:00:10;;;;;;;2.50;2.25;;;;;;;;;;782141;76;26297;-82
2022/02/18 06:01:10;;;;;;;2.35;1.95;;;;;;;;;;775297;76;26302;-82
2022/02/18 06:02:12;;;;;;;2.00;1.90;;;;;;;;;;782227;76;26300;-79
2022/02/18 06:03:15;;;;;;;2.08;1.98;;;;;;;;;;782280;75;26370;-79
2022/02/18 06:04:18;;;;;;;1.95;1.75;;;;;;;;;;782204;75;26656;-80
2022/02/18 06:05:20;;;;;;;1.75;1.65;;;;;;;;;;782440;76;26335;-83
2022/02/18 06:06:23;;;;;;;1.90;1.72;;;;;;;;;;782906;76;26320;-81
2022/02/18 06:07:26;;;;;;;1.82;1.72;;;;;;;;;;782730;76;26238;-84
2022/02/18 06:08:28;;;;;;;1.85;1.72;;;;;;;;;;783125;76;26375;-80
2022/02/18 06:09:31;;;;;;;3.72;2.40;;;;;;;;;;783536;76;26226;-80
2022/02/18 06:10:35;;;;;;;2.00;1.90;;;;;;;;;;783453;76;26327;-82
2022/02/18 06:11:38;;;;;;;2.15;1.95;;;;;;;;;;783075;76;26291;-80
2022/02/18 06:12:41;;;;;;;2.10;2.00;;;;;;;;;;782841;76;26350;-80
2022/02/18 06:13:44;;;;;;;1.70;1.60;;;;;;;;;;782868;76;26335;-80
2022/02/18 06:14:50;;;;;;;2.00;1.80;;;;;;;;;;782670;76;26291;-80
2022/02/18 06:15:53;;;;;;;3.27;2.10;;;;;;;;;;782503;76;26273;-80
2022/02/18 06:16:55;;;;;;;2.12;1.92;;;;;;;;;;782794;76;26272;-80
2022/02/18 06:17:58;;;;;;;2.33;2.12;;;;;;;;;;782984;75;26726;-80
2022/02/18 06:19:04;;;;;;;1.95;1.85;;;;;;;;;;782425;76;26317;-78
2022/02/18 06:20:06;;;;;;;2.02;1.87;;;;;;;;;;782587;75;26641;-81
2022/02/18 06:21:09;;;;;;;1.80;1.70;;;;;;;;;;782652;76;26394;-81
2022/02/18 06:22:11;;;;;;;2.95;2.15;;;;;;;;;;783063;76;26409;-80
2022/02/18 06:23:14;;;;;;;2.33;2.12;;;;;;;;;;782859;76;26312;-77
2022/02/18 06:24:19;;;;;;;2.95;2.52;;;;;;;;;;782938;76;26350;-79
2022/02/18 06:25:21;;;;;;;2.30;2.10;;;;;;;;;;783174;76;26696;-80
2022/02/18 06:26:24;;;;;;;1.90;1.80;;;;;;;;;;783028;76;26382;-81
2022/02/18 06:27:28;;;;;;;2.20;2.00;;;;;;;;;;783319;76;26355;-79
2022/02/18 06:28:30;;;;;;;2.22;2.02;;;;;;;;;;783178;76;26323;-80
2022/02/18 06:29:33;;;;;;;3.08;2.05;;;;;;;;;;783329;76;26402;-78
2022/02/18 06:30:37;;;;;;;1.70;1.60;;;;;;;;;;783642;76;26281;-78
2022/02/18 06:31:39;;;;;;;1.62;1.52;;;;;;;;;;783295;76;26270;-77
2022/02/18 06:32:43;;;;;;;1.80;1.70;;;;;;;;;;783605;76;26354;-79
2022/02/18 06:33:46;;;;;;;2.42;2.02;;;;;;;;;;785037;75;26284;-79
2022/02/18 06:34:49;;;;;;;2.15;2.05;;;;;;;;;;784784;76;26226;-79
2022/02/18 06:35:54;;;;;;;1.67;1.57;;;;;;;;;;783450;75;26273;-78
2022/02/18 06:36:57;;;;;;;1.90;1.60;;;;;;;;;;783305;76;26612;-78
2022/02/18 06:38:00;;;;;;;2.02;1.92;;;;;;;;;;783755;75;26336;-76
2022/02/18 06:39:03;;;;;;;1.92;1.82;;;;;;;;;;783614;75;26363;-78
2022/02/18 06:40:06;;;;;;;2.00;1.90;;;;;;;;;;783686;76;26370;-79
2022/02/18 06:41:09;;;;;;;2.67;2.00;;;;;;;;;;783608;75;26300;-78
2022/02/18 06:42:12;;;;;;;1.90;1.80;;;;;;;;;;783494;76;26355;-79
2022/02/18 06:43:15;;;;;;;1.60;1.50;;;;;;;;;;783140;76;26390;-77
2022/02/18 06:44:17;;;;;;;1.77;1.67;;;;;;;;;;783205;76;26388;-79
2022/02/18 06:45:20;;;;;;;2.10;1.65;;;;;;;;;;783230;76;26391;-76
2022/02/18 06:46:24;;;;;;;2.00;1.80;;;;;;;;;;783573;74;26516;-82
2022/02/18 06:47:26;;;;;;;1.92;1.82;;;;;;;;;;795934;74;26278;-79
2022/02/18 06:48:29;;;;;;;2.05;1.95;;;;;;;;;;795842;74;26270;-80
2022/02/18 06:49:32;;;;;;;1.82;1.72;;;;;;;;;;795546;74;26277;-77
2022/02/18 06:50:35;;;;;;;2.72;1.95;;;;;;;;;;795741;74;26233;-83
2022/02/18 06:51:38;;;;;;;2.33;2.12;;;;;;;;;;795780;74;26324;-82
2022/02/18 06:52:41;;;;;;;2.10;1.80;;;;;;;;;;795742;74;26282;-79
2022/02/18 06:53:44;;;;;;;1.80;1.70;;;;;;;;;;795904;74;26272;-79
2022/02/18 06:54:47;;;;;;;3.67;1.75;;;;;;;;;;795810;74;26265;-76
2022/02/18 06:55:50;;;;;;;1.82;1.72;;;;;;;;;;795697;74;26337;-79
2022/02/18 06:56:53;;;;;;;3.10;1.92;;;;;;;;;;795946;74;26358;-80
2022/02/18 06:57:57;;;;;;;2.52;1.70;;;;;;;;;;795942;74;26374;-81
2022/02/18 06:59:00;;;;;;;1.70;1.60;;;;;;;;;;796079;74;26276;-79
2022/02/18 07:00:03;;;;;;;1.87;1.77;;;;;;;;;;796549;74;26244;-81
2022/02/18 07:01:06;;;;;;;2.80;1.70;;;;;;;;;;795899;74;26277;-82
2022/02/18 07:02:09;;;;;;;2.42;1.80;;;;;;;;;;796082;74;26300;-82
2022/02/18 07:03:12;;;;;;;1.80;1.67;;;;;;;;;;796105;74;26214;-82
2022/02/18 07:04:15;;;;;;;2.10;1.77;;;;;;;;;;796304;74;26285;-82
2022/02/18 07:05:18;;;;;;;3.27;1.85;;;;;;;;;;796110;74;26301;-82
2022/02/18 07:06:23;;;;;;;2.92;2.00;;;;;;;;;;796283;74;26755;-82
2022/02/18 07:07:25;;;;;;;3.15;1.87;;;;;;;;;;796093;74;26281;-80
2022/02/18 07:08:30;;;;;;;2.33;2.10;;;;;;;;;;796331;74;26262;-85
2022/02/18 07:09:35;;;;;;;1.72;1.62;;;;;;;;;;796580;74;26228;-84
2022/02/18 07:10:41;;;;;;;1.62;1.50;;;;;;;;;;796633;74;26272;-81
2022/02/18 07:11:44;;;;;;;3.52;1.52;;;;;;;;;;796305;74;26305;-83
2022/02/18 07:12:48;;;;;;;1.82;1.72;;;;;;;;;;796353;74;26261;-84
2022/02/18 07:13:52;;;;;;;3.55;1.80;;;;;;;;;;796534;74;26312;-86
2022/02/18 07:14:57;;;;;;;1.98;1.80;;;;;;;;;;796625;74;26273;-81
2022/02/18 07:16:08;;;;;;;3.17;1.85;;;;;;;;;;796681;74;26284;-83
2022/02/18 07:17:14;;;;;;;2.25;1.92;;;;;;;;;;796278;74;26301;-84
2022/02/18 07:18:20;;;;;;;1.95;1.85;;;;;;;;;;796166;73;26285;-82
2022/02/18 07:19:22;;;;;;;1.77;1.65;;;;;;;;;;796516;73;26227;-81
2022/02/18 07:20:25;;;;;;;2.25;1.75;;;;;;;;;;776487;76;26296;-83
2022/02/18 07:21:28;;;;;;;3.65;2.20;;;;;;;;;;777256;74;26313;-83
2022/02/18 07:22:40;;;;;;;2.62;1.90;;;;;;;;;;794298;74;26274;-85
2022/02/18 07:23:41;;;;;;;2.00;1.90;;;;;;;;;;796125;74;26347;-82
2022/02/18 07:24:46;;;;;;;2.12;1.90;;;;;;;;;;796266;74;26293;-84
2022/02/18 07:25:49;;;;;;;2.80;2.08;;;;;;;;;;796154;74;26226;-85
2022/02/18 07:27:02;;;;;;;4.45;3.60;;;;;;;;;;795816;74;26670;-82
2022/02/18 07:28:01;;;;;;;3.98;3.60;;;;;;;;;;794016;74;26323;-84
2022/02/18 07:29:11;;;;;;;3.87;2.80;;;;;;;;;;796192;74;26230;-83
2022/02/18 07:30:15;;;;;;;2.40;2.00;;;;;;;;;;796371;74;26207;-83
2022/02/18 07:31:20;;;;;;;3.30;2.25;;;;;;;;;;795849;74;26394;-83
2022/02/18 07:32:24;;;;;;;2.95;2.70;;;;;;;;;;796429;74;26304;-84
2022/02/18 07:33:27;;;;;;;2.40;1.87;;;;;;;;;;796479;74;26249;-80
2022/02/18 07:34:31;;;;;;;2.85;2.00;;;;;;;;;;796188;74;26297;-84
2022/02/18 07:35:33;;;;;;;1.98;1.80;;;;;;;;;;796024;74;26451;-84
2022/02/18 07:36:37;;;;;;;2.27;2.08;;;;;;;;;;795963;74;26367;-84
2022/02/18 07:37:42;;;;;;;2.00;1.90;;;;;;;;;;796063;74;26926;-82
2022/02/18 07:38:46;;;;;;;4.47;2.15;;;;;;;;;;796753;74;26285;-82
2022/02/18 07:40:12;;;;;;;2.27;1.90;;;;;;;;;;796084;74;26275;-84
2022/02/18 07:41:15;;;;;;;3.27;1.85;;;;;;;;;;796144;74;26215;-83
2022/02/18 07:42:21;;;;;;;4.10;2.15;;;;;;;;;;796546;74;26243;-82